sensor_id;sensor_type;location;lat;lon;timestamp;P1;durP1;ratioP1;P2;durP2;ratioP2
44606;SDS011;30315;46.072;14.474;2023-03-24T00:00:24;9.73;;;8.15;;
44606;SDS011;30315;46.072;14.474;2023-03-24T00:02:51;9.32;;;7.32;;
44606;SDS011;30315;46.072;14.474;2023-03-24T00:05:20;8.75;;;7.20;;
44606;SDS011;30315;46.072;14.474;2023-03-24T00:07:48;8.57;;;7.18;;
44606;SDS011;30315;46.072;14.474;2023-03-24T00:10:20;6.93;;;6.22;;
44606;SDS011;30315;46.072;14.474;2023-03-24T00:12:48;8.30;;;7.15;;
44606;SDS011;30315;46.072;14.474;2023-03-24T00:15:18;9.18;;;7.00;;
44606;SDS011;30315;46.072;14.474;2023-03-24T00:17:47;7.63;;;6.80;;
44606;SDS011;30315;46.072;14.474;2023-03-24T00:20:18;10.20;;;7.28;;
44606;SDS011;30315;46.072;14.474;2023-03-24T00:22:48;10.15;;;7.78;;
44606;SDS011;30315;46.072;14.474;2023-03-24T00:25:23;7.75;;;6.78;;
44606;SDS011;30315;46.072;14.474;2023-03-24T00:27:54;7.07;;;6.47;;
44606;SDS011;30315;46.072;14.474;2023-03-24T00:30:23;8.13;;;6.82;;
44606;SDS011;30315;46.072;14.474;2023-03-24T00:32:51;7.20;;;5.90;;
44606;SDS011;30315;46.072;14.474;2023-03-24T00:35:18;7.22;;;6.00;;
44606;SDS011;30315;46.072;14.474;2023-03-24T00:37:46;8.65;;;7.00;;
44606;SDS011;30315;46.072;14.474;2023-03-24T00:40:16;7.43;;;6.73;;
44606;SDS011;30315;46.072;14.474;2023-03-24T00:42:45;7.07;;;6.47;;
44606;SDS011;30315;46.072;14.474;2023-03-24T00:45:14;6.73;;;6.13;;
44606;SDS011;30315;46.072;14.474;2023-03-24T00:47:46;7.38;;;6.68;;
44606;SDS011;30315;46.072;14.474;2023-03-24T00:50:16;7.78;;;6.88;;
44606;SDS011;30315;46.072;14.474;2023-03-24T00:52:46;9.25;;;6.97;;
44606;SDS011;30315;46.072;14.474;2023-03-24T00:55:14;8.10;;;7.07;;
44606;SDS011;30315;46.072;14.474;2023-03-24T00:57:43;10.45;;;6.93;;
44606;SDS011;30315;46.072;14.474;2023-03-24T01:00:17;10.40;;;7.05;;
44606;SDS011;30315;46.072;14.474;2023-03-24T01:02:47;8.75;;;7.35;;
44606;SDS011;30315;46.072;14.474;2023-03-24T01:05:24;9.27;;;7.13;;
44606;SDS011;30315;46.072;14.474;2023-03-24T01:07:57;8.40;;;7.18;;
44606;SDS011;30315;46.072;14.474;2023-03-24T01:10:31;8.13;;;7.05;;
44606;SDS011;30315;46.072;14.474;2023-03-24T01:13:00;12.95;;;8.38;;
44606;SDS011;30315;46.072;14.474;2023-03-24T01:15:29;10.48;;;7.28;;
44606;SDS011;30315;46.072;14.474;2023-03-24T01:17:59;10.02;;;7.43;;
44606;SDS011;30315;46.072;14.474;2023-03-24T01:20:27;8.07;;;7.35;;
44606;SDS011;30315;46.072;14.474;2023-03-24T01:22:59;10.15;;;7.20;;
44606;SDS011;30315;46.072;14.474;2023-03-24T01:25:27;7.45;;;6.75;;
44606;SDS011;30315;46.072;14.474;2023-03-24T01:27:55;9.30;;;7.28;;
44606;SDS011;30315;46.072;14.474;2023-03-24T01:30:23;7.82;;;7.03;;
44606;SDS011;30315;46.072;14.474;2023-03-24T01:32:52;7.88;;;7.13;;
44606;SDS011;30315;46.072;14.474;2023-03-24T01:35:20;8.55;;;7.43;;
44606;SDS011;30315;46.072;14.474;2023-03-24T01:37:48;7.18;;;6.45;;
44606;SDS011;30315;46.072;14.474;2023-03-24T01:40:16;8.85;;;7.20;;
44606;SDS011;30315;46.072;14.474;2023-03-24T01:42:46;8.18;;;6.30;;
44606;SDS011;30315;46.072;14.474;2023-03-24T01:48:07;8.00;;;7.20;;
44606;SDS011;30315;46.072;14.474;2023-03-24T01:50:50;8.30;;;7.50;;
44606;SDS011;30315;46.072;14.474;2023-03-24T01:53:22;8.20;;;7.35;;
44606;SDS011;30315;46.072;14.474;2023-03-24T01:55:50;11.38;;;8.68;;
44606;SDS011;30315;46.072;14.474;2023-03-24T01:58:22;9.00;;;8.10;;
44606;SDS011;30315;46.072;14.474;2023-03-24T02:01:08;9.77;;;8.27;;
44606;SDS011;30315;46.072;14.474;2023-03-24T02:03:56;10.57;;;8.73;;
44606;SDS011;30315;46.072;14.474;2023-03-24T02:08:56;10.60;;;9.30;;
44606;SDS011;30315;46.072;14.474;2023-03-24T02:11:27;11.48;;;9.25;;
44606;SDS011;30315;46.072;14.474;2023-03-24T02:14:01;10.40;;;8.75;;
44606;SDS011;30315;46.072;14.474;2023-03-24T02:27:38;17.25;;;9.02;;
44606;SDS011;30315;46.072;14.474;2023-03-24T02:45:06;10.95;;;9.40;;
44606;SDS011;30315;46.072;14.474;2023-03-24T02:48:05;9.80;;;8.80;;
44606;SDS011;30315;46.072;14.474;2023-03-24T02:50:39;11.20;;;9.10;;
44606;SDS011;30315;46.072;14.474;2023-03-24T02:59:48;13.25;;;9.32;;
44606;SDS011;30315;46.072;14.474;2023-03-24T03:03:15;9.63;;;8.65;;
44606;SDS011;30315;46.072;14.474;2023-03-24T03:06:00;11.77;;;9.40;;
44606;SDS011;30315;46.072;14.474;2023-03-24T03:08:32;14.85;;;9.65;;
44606;SDS011;30315;46.072;14.474;2023-03-24T03:11:02;16.55;;;10.02;;
44606;SDS011;30315;46.072;14.474;2023-03-24T03:13:37;12.20;;;10.05;;
44606;SDS011;30315;46.072;14.474;2023-03-24T03:16:09;10.57;;;9.52;;
44606;SDS011;30315;46.072;14.474;2023-03-24T03:21:18;12.07;;;10.05;;
44606;SDS011;30315;46.072;14.474;2023-03-24T03:24:24;12.10;;;10.57;;
44606;SDS011;30315;46.072;14.474;2023-03-24T03:26:54;13.00;;;10.70;;
44606;SDS011;30315;46.072;14.474;2023-03-24T03:29:44;12.90;;;10.90;;
44606;SDS011;30315;46.072;14.474;2023-03-24T03:32:50;16.27;;;11.88;;
44606;SDS011;30315;46.072;14.474;2023-03-24T03:40:41;15.68;;;12.07;;
44606;SDS011;30315;46.072;14.474;2023-03-24T03:43:18;14.38;;;12.13;;
44606;SDS011;30315;46.072;14.474;2023-03-24T03:45:45;13.57;;;11.68;;
44606;SDS011;30315;46.072;14.474;2023-03-24T03:48:14;13.70;;;11.73;;
44606;SDS011;30315;46.072;14.474;2023-03-24T03:50:43;15.00;;;11.35;;
44606;SDS011;30315;46.072;14.474;2023-03-24T03:53:11;15.82;;;12.93;;
44606;SDS011;30315;46.072;14.474;2023-03-24T03:55:41;14.85;;;12.18;;
44606;SDS011;30315;46.072;14.474;2023-03-24T03:58:10;16.02;;;11.60;;
44606;SDS011;30315;46.072;14.474;2023-03-24T04:00:50;17.27;;;12.38;;
44606;SDS011;30315;46.072;14.474;2023-03-24T04:06:35;14.02;;;11.27;;
44606;SDS011;30315;46.072;14.474;2023-03-24T04:15:48;14.98;;;12.80;;
44606;SDS011;30315;46.072;14.474;2023-03-24T04:21:35;14.07;;;12.52;;
44606;SDS011;30315;46.072;14.474;2023-03-24T04:27:20;13.20;;;11.80;;
44606;SDS011;30315;46.072;14.474;2023-03-24T04:29:54;13.48;;;12.07;;
44606;SDS011;30315;46.072;14.474;2023-03-24T04:32:38;14.10;;;11.93;;
44606;SDS011;30315;46.072;14.474;2023-03-24T04:35:09;12.83;;;11.47;;
44606;SDS011;30315;46.072;14.474;2023-03-24T04:38:22;14.20;;;11.50;;
44606;SDS011;30315;46.072;14.474;2023-03-24T04:41:12;13.75;;;11.98;;
44606;SDS011;30315;46.072;14.474;2023-03-24T04:43:49;13.95;;;11.48;;
44606;SDS011;30315;46.072;14.474;2023-03-24T04:46:16;15.25;;;11.63;;
44606;SDS011;30315;46.072;14.474;2023-03-24T04:48:53;19.98;;;13.10;;
44606;SDS011;30315;46.072;14.474;2023-03-24T04:51:30;14.43;;;12.30;;
44606;SDS011;30315;46.072;14.474;2023-03-24T04:54:14;14.75;;;12.00;;
44606;SDS011;30315;46.072;14.474;2023-03-24T04:56:54;16.88;;;12.23;;
44606;SDS011;30315;46.072;14.474;2023-03-24T04:59:30;17.30;;;11.70;;
44606;SDS011;30315;46.072;14.474;2023-03-24T05:02:01;14.68;;;11.90;;
44606;SDS011;30315;46.072;14.474;2023-03-24T05:04:42;15.40;;;12.70;;
44606;SDS011;30315;46.072;14.474;2023-03-24T05:07:21;19.33;;;14.27;;
44606;SDS011;30315;46.072;14.474;2023-03-24T05:09:52;15.90;;;13.73;;
44606;SDS011;30315;46.072;14.474;2023-03-24T05:12:19;18.02;;;13.65;;
44606;SDS011;30315;46.072;14.474;2023-03-24T05:15:04;20.52;;;12.50;;
44606;SDS011;30315;46.072;14.474;2023-03-24T05:17:34;13.55;;;11.93;;
44606;SDS011;30315;46.072;14.474;2023-03-24T05:20:02;18.42;;;11.30;;
44606;SDS011;30315;46.072;14.474;2023-03-24T05:22:34;13.50;;;10.77;;
44606;SDS011;30315;46.072;14.474;2023-03-24T05:25:02;17.40;;;11.18;;
44606;SDS011;30315;46.072;14.474;2023-03-24T05:27:29;14.63;;;11.85;;
44606;SDS011;30315;46.072;14.474;2023-03-24T05:30:04;14.32;;;11.27;;
44606;SDS011;30315;46.072;14.474;2023-03-24T05:32:34;14.38;;;11.50;;
44606;SDS011;30315;46.072;14.474;2023-03-24T05:35:02;18.90;;;12.15;;
44606;SDS011;30315;46.072;14.474;2023-03-24T05:37:32;15.25;;;11.50;;
44606;SDS011;30315;46.072;14.474;2023-03-24T05:40:00;15.02;;;11.27;;
44606;SDS011;30315;46.072;14.474;2023-03-24T05:42:48;12.48;;;11.15;;
44606;SDS011;30315;46.072;14.474;2023-03-24T05:45:16;15.65;;;11.23;;
44606;SDS011;30315;46.072;14.474;2023-03-24T05:47:44;15.43;;;12.23;;
44606;SDS011;30315;46.072;14.474;2023-03-24T05:52:43;16.55;;;11.88;;
44606;SDS011;30315;46.072;14.474;2023-03-24T05:55:40;14.80;;;11.80;;
44606;SDS011;30315;46.072;14.474;2023-03-24T05:58:28;13.40;;;11.23;;
44606;SDS011;30315;46.072;14.474;2023-03-24T06:00:56;19.55;;;11.90;;
44606;SDS011;30315;46.072;14.474;2023-03-24T06:03:32;15.82;;;12.95;;
44606;SDS011;30315;46.072;14.474;2023-03-24T06:06:05;16.05;;;12.10;;
44606;SDS011;30315;46.072;14.474;2023-03-24T06:08:34;16.73;;;12.88;;
44606;SDS011;30315;46.072;14.474;2023-03-24T06:11:01;18.17;;;13.10;;
44606;SDS011;30315;46.072;14.474;2023-03-24T06:13:35;16.65;;;11.88;;
44606;SDS011;30315;46.072;14.474;2023-03-24T06:16:02;15.77;;;11.57;;
44606;SDS011;30315;46.072;14.474;2023-03-24T06:18:47;15.30;;;12.40;;
44606;SDS011;30315;46.072;14.474;2023-03-24T06:21:37;18.80;;;13.48;;
44606;SDS011;30315;46.072;14.474;2023-03-24T06:24:05;17.58;;;12.23;;
44606;SDS011;30315;46.072;14.474;2023-03-24T06:26:33;19.42;;;12.15;;
44606;SDS011;30315;46.072;14.474;2023-03-24T06:29:01;18.90;;;13.02;;
44606;SDS011;30315;46.072;14.474;2023-03-24T06:31:32;18.00;;;12.85;;
44606;SDS011;30315;46.072;14.474;2023-03-24T06:34:02;15.65;;;12.63;;
44606;SDS011;30315;46.072;14.474;2023-03-24T06:36:30;13.85;;;12.13;;
44606;SDS011;30315;46.072;14.474;2023-03-24T06:38:57;14.88;;;12.30;;
44606;SDS011;30315;46.072;14.474;2023-03-24T06:41:25;17.85;;;12.43;;
44606;SDS011;30315;46.072;14.474;2023-03-24T06:43:56;14.00;;;12.02;;
44606;SDS011;30315;46.072;14.474;2023-03-24T06:46:24;16.20;;;12.02;;
44606;SDS011;30315;46.072;14.474;2023-03-24T06:48:51;15.15;;;10.80;;
44606;SDS011;30315;46.072;14.474;2023-03-24T06:51:19;12.98;;;9.95;;
44606;SDS011;30315;46.072;14.474;2023-03-24T06:53:46;8.73;;;7.85;;
44606;SDS011;30315;46.072;14.474;2023-03-24T06:56:13;7.18;;;6.35;;
44606;SDS011;30315;46.072;14.474;2023-03-24T06:58:48;7.60;;;6.90;;
44606;SDS011;30315;46.072;14.474;2023-03-24T07:01:25;8.32;;;6.95;;
44606;SDS011;30315;46.072;14.474;2023-03-24T07:03:55;8.38;;;7.35;;
44606;SDS011;30315;46.072;14.474;2023-03-24T07:06:35;8.25;;;6.65;;
44606;SDS011;30315;46.072;14.474;2023-03-24T07:09:24;6.57;;;6.00;;
44606;SDS011;30315;46.072;14.474;2023-03-24T07:11:51;7.18;;;6.57;;
44606;SDS011;30315;46.072;14.474;2023-03-24T07:14:18;8.10;;;7.13;;
44606;SDS011;30315;46.072;14.474;2023-03-24T07:19:37;6.55;;;5.97;;
44606;SDS011;30315;46.072;14.474;2023-03-24T07:22:39;7.80;;;6.03;;
44606;SDS011;30315;46.072;14.474;2023-03-24T07:25:24;6.97;;;6.28;;
44606;SDS011;30315;46.072;14.474;2023-03-24T07:28:01;10.65;;;6.97;;
44606;SDS011;30315;46.072;14.474;2023-03-24T07:30:29;7.78;;;6.95;;
44606;SDS011;30315;46.072;14.474;2023-03-24T07:33:07;8.20;;;6.28;;
44606;SDS011;30315;46.072;14.474;2023-03-24T07:35:41;9.70;;;6.70;;
44606;SDS011;30315;46.072;14.474;2023-03-24T07:38:09;7.28;;;6.60;;
44606;SDS011;30315;46.072;14.474;2023-03-24T07:40:36;7.32;;;6.60;;
44606;SDS011;30315;46.072;14.474;2023-03-24T07:43:03;7.53;;;5.95;;
44606;SDS011;30315;46.072;14.474;2023-03-24T07:45:50;6.78;;;6.18;;
44606;SDS011;30315;46.072;14.474;2023-03-24T07:48:17;6.93;;;5.57;;
44606;SDS011;30315;46.072;14.474;2023-03-24T07:50:45;6.78;;;6.18;;
44606;SDS011;30315;46.072;14.474;2023-03-24T07:53:31;6.30;;;5.70;;
44606;SDS011;30315;46.072;14.474;2023-03-24T07:56:00;7.50;;;6.20;;
44606;SDS011;30315;46.072;14.474;2023-03-24T07:58:27;7.07;;;6.45;;
44606;SDS011;30315;46.072;14.474;2023-03-24T08:01:17;5.82;;;5.00;;
44606;SDS011;30315;46.072;14.474;2023-03-24T08:03:47;5.30;;;4.80;;
44606;SDS011;30315;46.072;14.474;2023-03-24T08:06:41;5.50;;;5.05;;
44606;SDS011;30315;46.072;14.474;2023-03-24T08:09:09;6.18;;;5.70;;
44606;SDS011;30315;46.072;14.474;2023-03-24T08:11:37;4.65;;;4.28;;
44606;SDS011;30315;46.072;14.474;2023-03-24T08:14:04;5.55;;;5.00;;
44606;SDS011;30315;46.072;14.474;2023-03-24T08:16:34;4.97;;;4.57;;
44606;SDS011;30315;46.072;14.474;2023-03-24T08:19:04;6.15;;;4.85;;
44606;SDS011;30315;46.072;14.474;2023-03-24T08:21:31;4.55;;;4.15;;
44606;SDS011;30315;46.072;14.474;2023-03-24T08:23:58;4.68;;;4.38;;
44606;SDS011;30315;46.072;14.474;2023-03-24T08:26:25;4.32;;;3.85;;
44606;SDS011;30315;46.072;14.474;2023-03-24T08:28:52;4.63;;;4.22;;
44606;SDS011;30315;46.072;14.474;2023-03-24T08:31:19;4.57;;;4.28;;
44606;SDS011;30315;46.072;14.474;2023-03-24T08:33:46;6.13;;;4.63;;
44606;SDS011;30315;46.072;14.474;2023-03-24T08:36:13;4.25;;;3.95;;
44606;SDS011;30315;46.072;14.474;2023-03-24T08:38:40;4.43;;;4.05;;
44606;SDS011;30315;46.072;14.474;2023-03-24T08:41:07;3.95;;;3.58;;
44606;SDS011;30315;46.072;14.474;2023-03-24T08:43:35;4.25;;;3.85;;
44606;SDS011;30315;46.072;14.474;2023-03-24T08:46:05;4.47;;;4.07;;
44606;SDS011;30315;46.072;14.474;2023-03-24T08:48:33;10.38;;;4.43;;
44606;SDS011;30315;46.072;14.474;2023-03-24T08:51:08;5.18;;;4.28;;
44606;SDS011;30315;46.072;14.474;2023-03-24T08:53:39;5.75;;;4.20;;
44606;SDS011;30315;46.072;14.474;2023-03-24T08:56:06;5.78;;;4.25;;
44606;SDS011;30315;46.072;14.474;2023-03-24T08:58:33;5.32;;;4.60;;
44606;SDS011;30315;46.072;14.474;2023-03-24T09:01:01;4.45;;;3.88;;
44606;SDS011;30315;46.072;14.474;2023-03-24T09:03:28;5.65;;;3.80;;
44606;SDS011;30315;46.072;14.474;2023-03-24T09:05:55;7.85;;;3.97;;
44606;SDS011;30315;46.072;14.474;2023-03-24T09:08:24;4.95;;;4.45;;
44606;SDS011;30315;46.072;14.474;2023-03-24T09:10:51;5.53;;;4.20;;
44606;SDS011;30315;46.072;14.474;2023-03-24T09:13:18;4.45;;;4.05;;
44606;SDS011;30315;46.072;14.474;2023-03-24T09:15:51;4.80;;;4.10;;
44606;SDS011;30315;46.072;14.474;2023-03-24T09:18:20;4.75;;;4.35;;
44606;SDS011;30315;46.072;14.474;2023-03-24T09:20:47;5.05;;;4.20;;
44606;SDS011;30315;46.072;14.474;2023-03-24T09:23:15;4.55;;;3.80;;
44606;SDS011;30315;46.072;14.474;2023-03-24T09:25:42;3.85;;;3.55;;
44606;SDS011;30315;46.072;14.474;2023-03-24T09:28:10;4.15;;;3.75;;
44606;SDS011;30315;46.072;14.474;2023-03-24T09:30:39;3.90;;;3.60;;
44606;SDS011;30315;46.072;14.474;2023-03-24T09:33:06;4.15;;;3.70;;
44606;SDS011;30315;46.072;14.474;2023-03-24T09:35:33;7.72;;;4.45;;
44606;SDS011;30315;46.072;14.474;2023-03-24T09:38:00;4.22;;;3.83;;
44606;SDS011;30315;46.072;14.474;2023-03-24T09:40:30;4.47;;;3.67;;
44606;SDS011;30315;46.072;14.474;2023-03-24T09:45:42;4.00;;;3.70;;
44606;SDS011;30315;46.072;14.474;2023-03-24T09:48:29;3.88;;;3.58;;
44606;SDS011;30315;46.072;14.474;2023-03-24T09:51:11;4.35;;;3.90;;
44606;SDS011;30315;46.072;14.474;2023-03-24T09:53:48;5.45;;;4.07;;
44606;SDS011;30315;46.072;14.474;2023-03-24T09:56:34;6.00;;;3.45;;
44606;SDS011;30315;46.072;14.474;2023-03-24T09:59:05;3.45;;;3.15;;
44606;SDS011;30315;46.072;14.474;2023-03-24T10:01:37;6.30;;;3.17;;
44606;SDS011;30315;46.072;14.474;2023-03-24T10:04:06;3.53;;;2.50;;
44606;SDS011;30315;46.072;14.474;2023-03-24T10:06:43;6.28;;;2.72;;
44606;SDS011;30315;46.072;14.474;2023-03-24T10:29:01;6.93;;;4.20;;
44606;SDS011;30315;46.072;14.474;2023-03-24T10:31:30;4.40;;;3.50;;
44606;SDS011;30315;46.072;14.474;2023-03-24T10:33:59;5.00;;;3.95;;
44606;SDS011;30315;46.072;14.474;2023-03-24T10:36:26;5.43;;;3.55;;
44606;SDS011;30315;46.072;14.474;2023-03-24T10:38:54;3.92;;;3.50;;
44606;SDS011;30315;46.072;14.474;2023-03-24T10:41:25;4.88;;;3.45;;
44606;SDS011;30315;46.072;14.474;2023-03-24T10:43:55;4.40;;;3.50;;
44606;SDS011;30315;46.072;14.474;2023-03-24T10:46:24;6.10;;;3.63;;
44606;SDS011;30315;46.072;14.474;2023-03-24T10:49:14;4.03;;;3.40;;
44606;SDS011;30315;46.072;14.474;2023-03-24T10:51:46;9.73;;;3.30;;
44606;SDS011;30315;46.072;14.474;2023-03-24T10:54:27;3.72;;;3.47;;
44606;SDS011;30315;46.072;14.474;2023-03-24T11:01:56;4.43;;;3.20;;
44606;SDS011;30315;46.072;14.474;2023-03-24T11:04:30;5.30;;;3.70;;
44606;SDS011;30315;46.072;14.474;2023-03-24T11:07:00;6.38;;;3.58;;
44606;SDS011;30315;46.072;14.474;2023-03-24T11:09:47;4.65;;;3.42;;
44606;SDS011;30315;46.072;14.474;2023-03-24T11:12:41;7.20;;;3.75;;
44606;SDS011;30315;46.072;14.474;2023-03-24T11:15:25;5.57;;;3.70;;
44606;SDS011;30315;46.072;14.474;2023-03-24T11:17:58;4.68;;;3.40;;
44606;SDS011;30315;46.072;14.474;2023-03-24T11:20:33;4.57;;;3.05;;
44606;SDS011;30315;46.072;14.474;2023-03-24T11:25:35;4.00;;;3.55;;
44606;SDS011;30315;46.072;14.474;2023-03-24T11:28:08;3.97;;;3.20;;
44606;SDS011;30315;46.072;14.474;2023-03-24T11:30:47;3.67;;;2.65;;
44606;SDS011;30315;46.072;14.474;2023-03-24T11:36:04;3.38;;;3.17;;
44606;SDS011;30315;46.072;14.474;2023-03-24T11:39:03;3.67;;;3.35;;
44606;SDS011;30315;46.072;14.474;2023-03-24T11:41:33;3.67;;;2.90;;
44606;SDS011;30315;46.072;14.474;2023-03-24T11:44:07;6.28;;;3.78;;
44606;SDS011;30315;46.072;14.474;2023-03-24T11:46:39;3.75;;;3.08;;
44606;SDS011;30315;46.072;14.474;2023-03-24T11:49:08;3.33;;;3.00;;
44606;SDS011;30315;46.072;14.474;2023-03-24T11:51:39;3.88;;;3.40;;
44606;SDS011;30315;46.072;14.474;2023-03-24T11:54:10;5.97;;;3.58;;
44606;SDS011;30315;46.072;14.474;2023-03-24T11:56:41;3.45;;;3.25;;
44606;SDS011;30315;46.072;14.474;2023-03-24T12:01:38;3.50;;;3.20;;
44606;SDS011;30315;46.072;14.474;2023-03-24T12:04:36;3.97;;;3.13;;
44606;SDS011;30315;46.072;14.474;2023-03-24T12:10:00;2.83;;;2.63;;
44606;SDS011;30315;46.072;14.474;2023-03-24T12:29:58;3.50;;;3.20;;
44606;SDS011;30315;46.072;14.474;2023-03-24T12:49:34;3.47;;;2.60;;
44606;SDS011;30315;46.072;14.474;2023-03-24T12:54:53;3.63;;;2.97;;
44606;SDS011;30315;46.072;14.474;2023-03-24T12:57:31;9.35;;;4.10;;
44606;SDS011;30315;46.072;14.474;2023-03-24T13:00:09;4.60;;;3.00;;
44606;SDS011;30315;46.072;14.474;2023-03-24T13:05:50;3.33;;;3.03;;
44606;SDS011;30315;46.072;14.474;2023-03-24T13:08:29;4.63;;;2.80;;
44606;SDS011;30315;46.072;14.474;2023-03-24T13:10:59;4.15;;;3.25;;
44606;SDS011;30315;46.072;14.474;2023-03-24T13:13:37;4.68;;;3.20;;
44606;SDS011;30315;46.072;14.474;2023-03-24T13:18:50;3.78;;;3.22;;
44606;SDS011;30315;46.072;14.474;2023-03-24T13:21:21;4.88;;;3.50;;
44606;SDS011;30315;46.072;14.474;2023-03-24T13:26:38;4.25;;;3.30;;
44606;SDS011;30315;46.072;14.474;2023-03-24T13:32:30;7.20;;;4.43;;
44606;SDS011;30315;46.072;14.474;2023-03-24T13:35:05;7.07;;;3.70;;
44606;SDS011;30315;46.072;14.474;2023-03-24T13:37:48;4.40;;;4.00;;
44606;SDS011;30315;46.072;14.474;2023-03-24T13:40:22;7.75;;;4.30;;
44606;SDS011;30315;46.072;14.474;2023-03-24T13:42:53;6.53;;;4.65;;
44606;SDS011;30315;46.072;14.474;2023-03-24T13:45:45;6.35;;;4.72;;
44606;SDS011;30315;46.072;14.474;2023-03-24T13:51:13;6.22;;;5.72;;
44606;SDS011;30315;46.072;14.474;2023-03-24T13:56:39;7.93;;;6.07;;
44606;SDS011;30315;46.072;14.474;2023-03-24T14:02:21;7.80;;;6.95;;
44606;SDS011;30315;46.072;14.474;2023-03-24T14:05:01;15.43;;;7.72;;
44606;SDS011;30315;46.072;14.474;2023-03-24T14:15:50;9.15;;;7.50;;
44606;SDS011;30315;46.072;14.474;2023-03-24T14:26:27;9.85;;;7.18;;
44606;SDS011;30315;46.072;14.474;2023-03-24T14:28:52;7.45;;;6.75;;
44606;SDS011;30315;46.072;14.474;2023-03-24T14:31:21;7.95;;;6.85;;
44606;SDS011;30315;46.072;14.474;2023-03-24T14:36:33;10.85;;;7.38;;
44606;SDS011;30315;46.072;14.474;2023-03-24T14:39:06;7.70;;;6.88;;
44606;SDS011;30315;46.072;14.474;2023-03-24T14:41:50;6.65;;;6.10;;
44606;SDS011;30315;46.072;14.474;2023-03-24T14:47:10;8.30;;;7.50;;
44606;SDS011;30315;46.072;14.474;2023-03-24T14:49:43;9.23;;;6.88;;
44606;SDS011;30315;46.072;14.474;2023-03-24T14:57:28;7.55;;;6.85;;
44606;SDS011;30315;46.072;14.474;2023-03-24T15:00:00;7.85;;;7.05;;
44606;SDS011;30315;46.072;14.474;2023-03-24T15:02:42;9.05;;;7.25;;
44606;SDS011;30315;46.072;14.474;2023-03-24T15:05:14;7.20;;;6.50;;
44606;SDS011;30315;46.072;14.474;2023-03-24T15:07:59;8.70;;;7.90;;
44606;SDS011;30315;46.072;14.474;2023-03-24T15:15:59;13.15;;;9.98;;
44606;SDS011;30315;46.072;14.474;2023-03-24T15:18:32;17.60;;;13.00;;
44606;SDS011;30315;46.072;14.474;2023-03-24T15:21:00;15.50;;;10.80;;
44606;SDS011;30315;46.072;14.474;2023-03-24T15:23:27;15.05;;;11.90;;
44606;SDS011;30315;46.072;14.474;2023-03-24T15:25:54;15.63;;;11.93;;
44606;SDS011;30315;46.072;14.474;2023-03-24T15:28:26;12.82;;;11.63;;
44606;SDS011;30315;46.072;14.474;2023-03-24T15:30:54;17.83;;;11.98;;
44606;SDS011;30315;46.072;14.474;2023-03-24T15:33:24;15.23;;;12.95;;
44606;SDS011;30315;46.072;14.474;2023-03-24T15:35:55;13.88;;;12.20;;
44606;SDS011;30315;46.072;14.474;2023-03-24T15:38:30;13.45;;;11.18;;
44606;SDS011;30315;46.072;14.474;2023-03-24T15:41:08;17.08;;;13.35;;
44606;SDS011;30315;46.072;14.474;2023-03-24T15:43:45;16.45;;;13.00;;
44606;SDS011;30315;46.072;14.474;2023-03-24T15:46:19;13.02;;;10.98;;
44606;SDS011;30315;46.072;14.474;2023-03-24T15:48:53;16.90;;;13.07;;
44606;SDS011;30315;46.072;14.474;2023-03-24T15:54:18;14.07;;;12.60;;
44606;SDS011;30315;46.072;14.474;2023-03-24T15:59:33;13.05;;;11.73;;
44606;SDS011;30315;46.072;14.474;2023-03-24T16:02:03;14.68;;;13.20;;
44606;SDS011;30315;46.072;14.474;2023-03-24T16:04:39;21.80;;;15.30;;
44606;SDS011;30315;46.072;14.474;2023-03-24T16:07:17;19.75;;;14.93;;
44606;SDS011;30315;46.072;14.474;2023-03-24T16:10:05;16.98;;;14.80;;
44606;SDS011;30315;46.072;14.474;2023-03-24T16:12:51;18.65;;;13.93;;
44606;SDS011;30315;46.072;14.474;2023-03-24T16:15:19;16.98;;;14.40;;
44606;SDS011;30315;46.072;14.474;2023-03-24T16:17:46;17.40;;;14.73;;
44606;SDS011;30315;46.072;14.474;2023-03-24T16:20:18;20.73;;;16.08;;
44606;SDS011;30315;46.072;14.474;2023-03-24T16:22:47;19.58;;;16.20;;
44606;SDS011;30315;46.072;14.474;2023-03-24T16:25:14;16.48;;;14.77;;
44606;SDS011;30315;46.072;14.474;2023-03-24T16:27:41;19.38;;;15.55;;
44606;SDS011;30315;46.072;14.474;2023-03-24T16:30:12;17.58;;;15.18;;
44606;SDS011;30315;46.072;14.474;2023-03-24T16:32:44;21.83;;;16.58;;
44606;SDS011;30315;46.072;14.474;2023-03-24T16:35:11;17.60;;;15.75;;
44606;SDS011;30315;46.072;14.474;2023-03-24T16:37:38;16.10;;;14.50;;
44606;SDS011;30315;46.072;14.474;2023-03-24T16:40:28;15.95;;;14.32;;
44606;SDS011;30315;46.072;14.474;2023-03-24T16:43:04;20.27;;;15.63;;
44606;SDS011;30315;46.072;14.474;2023-03-24T16:45:32;16.42;;;14.35;;
44606;SDS011;30315;46.072;14.474;2023-03-24T16:47:59;16.83;;;13.93;;
44606;SDS011;30315;46.072;14.474;2023-03-24T16:50:36;18.38;;;15.57;;
44606;SDS011;30315;46.072;14.474;2023-03-24T16:53:04;16.40;;;14.65;;
44606;SDS011;30315;46.072;14.474;2023-03-24T16:55:31;14.07;;;12.63;;
44606;SDS011;30315;46.072;14.474;2023-03-24T16:57:58;16.25;;;14.38;;
44606;SDS011;30315;46.072;14.474;2023-03-24T17:00:25;16.65;;;14.30;;
44606;SDS011;30315;46.072;14.474;2023-03-24T17:02:55;14.57;;;12.68;;
44606;SDS011;30315;46.072;14.474;2023-03-24T17:05:26;12.77;;;11.57;;
44606;SDS011;30315;46.072;14.474;2023-03-24T17:07:56;15.48;;;12.98;;
44606;SDS011;30315;46.072;14.474;2023-03-24T17:10:23;13.70;;;12.30;;
44606;SDS011;30315;46.072;14.474;2023-03-24T17:12:53;16.10;;;13.00;;
44606;SDS011;30315;46.072;14.474;2023-03-24T17:17:53;14.32;;;12.93;;
44606;SDS011;30315;46.072;14.474;2023-03-24T17:20:21;15.00;;;13.40;;
44606;SDS011;30315;46.072;14.474;2023-03-24T17:22:49;16.88;;;14.80;;
44606;SDS011;30315;46.072;14.474;2023-03-24T17:25:19;17.40;;;15.63;;
44606;SDS011;30315;46.072;14.474;2023-03-24T17:27:50;18.15;;;15.63;;
44606;SDS011;30315;46.072;14.474;2023-03-24T17:30:19;24.35;;;19.70;;
44606;SDS011;30315;46.072;14.474;2023-03-24T17:32:47;21.15;;;16.65;;
44606;SDS011;30315;46.072;14.474;2023-03-24T17:35:16;17.52;;;14.77;;
44606;SDS011;30315;46.072;14.474;2023-03-24T17:37:46;19.90;;;15.98;;
44606;SDS011;30315;46.072;14.474;2023-03-24T17:40:14;19.50;;;17.13;;
44606;SDS011;30315;46.072;14.474;2023-03-24T17:42:43;19.35;;;16.60;;
44606;SDS011;30315;46.072;14.474;2023-03-24T17:45:14;19.70;;;16.70;;
44606;SDS011;30315;46.072;14.474;2023-03-24T17:47:43;18.92;;;16.02;;
44606;SDS011;30315;46.072;14.474;2023-03-24T17:50:11;20.10;;;17.35;;
44606;SDS011;30315;46.072;14.474;2023-03-24T17:52:39;18.70;;;16.50;;
44606;SDS011;30315;46.072;14.474;2023-03-24T17:55:10;22.15;;;17.08;;
44606;SDS011;30315;46.072;14.474;2023-03-24T17:57:38;18.65;;;16.45;;
44606;SDS011;30315;46.072;14.474;2023-03-24T18:00:05;20.10;;;16.58;;
44606;SDS011;30315;46.072;14.474;2023-03-24T18:02:37;19.75;;;17.67;;
44606;SDS011;30315;46.072;14.474;2023-03-24T18:05:05;21.98;;;19.00;;
44606;SDS011;30315;46.072;14.474;2023-03-24T18:07:33;19.17;;;16.70;;
44606;SDS011;30315;46.072;14.474;2023-03-24T18:10:00;20.42;;;16.52;;
44606;SDS011;30315;46.072;14.474;2023-03-24T18:12:29;23.30;;;17.63;;
44606;SDS011;30315;46.072;14.474;2023-03-24T18:14:56;26.95;;;17.95;;
44606;SDS011;30315;46.072;14.474;2023-03-24T18:17:23;19.67;;;16.98;;
44606;SDS011;30315;46.072;14.474;2023-03-24T18:19:50;18.58;;;16.33;;